Time;durP1;ratioP1;P1;durP2;ratioP2;P2;SDS_P1;SDS_P2;PMS_P1;PMS_P2;Temp;Humidity;BMP_temperature;BMP_pressure;BME280_temperature;BME280_humidity;BME280_pressure;Samples;Min_cycle;Max_cycle;Signal;HPM_P1;HPM_P2
2023/05/07 00:00:01;;;;;;;24.48;17.42;;;12.80;99.90;;;;;;5015308;28;20050;-71
2023/05/07 00:02:26;;;;;;;24.10;17.58;;;12.80;99.90;;;;;;5014723;28;20056;-71
2023/05/07 00:04:52;;;;;;;24.58;18.55;;;12.80;99.90;;;;;;5015659;28;20103;-71
2023/05/07 00:07:18;;;;;;;21.55;17.65;;;12.80;99.90;;;;;;5015030;28;20414;-71
2023/05/07 00:09:44;;;;;;;27.67;18.58;;;12.70;99.90;;;;;;5015005;28;20467;-71
2023/05/07 00:12:09;;;;;;;25.20;18.50;;;12.80;99.90;;;;;;5015115;28;20528;-72
2023/05/07 00:14:35;;;;;;;25.40;18.42;;;12.70;99.90;;;;;;5014588;28;20046;-71
2023/05/07 00:17:01;;;;;;;24.63;19.52;;;12.70;99.90;;;;;;5015272;28;20038;-71
2023/05/07 00:19:27;;;;;;;24.85;20.13;;;12.70;99.90;;;;;;5015035;28;20151;-71
2023/05/07 00:21:56;;;;;;;28.90;19.83;;;12.60;99.90;;;;;;5015029;28;20390;-72
2023/05/07 00:24:22;;;;;;;24.65;20.00;;;12.60;99.90;;;;;;5015092;28;20133;-71
2023/05/07 00:26:47;;;;;;;25.95;19.95;;;12.50;99.90;;;;;;5014836;28;20081;-72
2023/05/07 00:29:13;;;;;;;25.75;21.58;;;12.50;99.90;;;;;;5014737;28;20049;-73
2023/05/07 00:31:39;;;;;;;30.55;22.30;;;12.50;99.90;;;;;;4997687;28;20471;-72
2023/05/07 00:34:05;;;;;;;28.38;21.73;;;12.50;99.90;;;;;;4997458;28;20491;-72
2023/05/07 00:36:31;;;;;;;29.23;21.73;;;12.40;99.90;;;;;;5014946;28;20128;-71
2023/05/07 00:39:00;;;;;;;31.10;21.33;;;12.40;99.90;;;;;;5014700;28;20482;-71
2023/05/07 00:41:26;;;;;;;27.48;21.70;;;12.30;99.90;;;;;;5014625;28;20081;-71
2023/05/07 00:43:52;;;;;;;25.58;20.73;;;12.30;99.90;;;;;;5014624;28;20123;-72
2023/05/07 00:46:20;;;;;;;30.38;22.60;;;12.30;99.90;;;;;;5014649;28;20046;-71
2023/05/07 00:48:47;;;;;;;28.88;22.23;;;12.20;99.90;;;;;;4996862;28;20053;-72
2023/05/07 00:51:13;;;;;;;25.70;21.30;;;12.20;99.90;;;;;;5014498;28;20080;-73
2023/05/07 00:53:39;;;;;;;32.30;22.13;;;12.20;99.90;;;;;;5014210;28;20057;-72
2023/05/07 00:56:06;;;;;;;25.58;21.58;;;12.10;99.90;;;;;;5014364;28;20042;-71
2023/05/07 00:58:33;;;;;;;30.13;22.15;;;12.10;99.90;;;;;;5014420;28;20061;-72
2023/05/07 01:00:59;;;;;;;28.85;24.15;;;12.10;99.90;;;;;;5014331;28;20463;-71
2023/05/07 01:03:25;;;;;;;28.35;23.60;;;12.10;99.90;;;;;;5014163;28;20142;-71
2023/05/07 01:05:53;;;;;;;30.75;22.70;;;12.10;99.90;;;;;;4996303;28;20046;-72
2023/05/07 01:08:20;;;;;;;31.63;24.67;;;12.00;99.90;;;;;;5014024;28;20117;-71
2023/05/07 01:10:46;;;;;;;32.38;24.85;;;12.00;99.90;;;;;;5013750;28;20058;-71
2023/05/07 01:13:13;;;;;;;32.22;25.88;;;12.00;99.90;;;;;;5014074;28;20429;-71
2023/05/07 01:15:40;;;;;;;30.92;22.17;;;12.00;99.90;;;;;;4996874;28;20054;-71
2023/05/07 01:18:07;;;;;;;30.50;24.75;;;12.00;99.90;;;;;;5013981;28;20050;-72
2023/05/07 01:20:33;;;;;;;32.13;24.98;;;11.90;99.90;;;;;;5013958;28;20046;-72
2023/05/07 01:23:00;;;;;;;31.95;25.02;;;11.90;99.90;;;;;;5013835;28;20128;-71
2023/05/07 01:25:26;;;;;;;32.38;26.13;;;11.90;99.90;;;;;;5013724;28;20064;-72
2023/05/07 01:27:52;;;;;;;33.20;25.30;;;11.90;99.90;;;;;;5013655;28;20061;-72
2023/05/07 01:30:20;;;;;;;31.23;23.15;;;11.80;99.90;;;;;;4996350;28;20046;-73
2023/05/07 01:32:53;;;;;;;34.05;25.80;;;11.80;99.90;;;;;;5013538;28;20085;-72
2023/05/07 01:35:22;;;;;;;34.83;25.58;;;11.80;99.90;;;;;;5013392;28;20057;-72
2023/05/07 01:37:48;;;;;;;33.13;25.50;;;11.70;99.90;;;;;;5013541;28;20513;-72
2023/05/07 01:40:14;;;;;;;38.63;27.77;;;11.70;99.90;;;;;;5013523;28;20050;-71
2023/05/07 01:42:42;;;;;;;36.08;27.48;;;11.70;99.90;;;;;;5013482;28;20049;-71
2023/05/07 01:45:09;;;;;;;36.35;27.65;;;11.70;99.90;;;;;;5013736;28;20073;-71
2023/05/07 01:47:36;;;;;;;39.08;27.85;;;11.70;99.90;;;;;;5013245;28;20087;-72
2023/05/07 01:50:01;;;;;;;33.53;25.92;;;11.70;99.90;;;;;;5013445;28;20046;-71
2023/05/07 01:52:28;;;;;;;36.10;26.95;;;11.60;99.90;;;;;;5013227;28;20516;-71
2023/05/07 01:54:54;;;;;;;40.15;29.83;;;11.60;99.90;;;;;;5013146;28;20049;-71
2023/05/07 01:57:20;;;;;;;39.05;28.15;;;11.60;99.90;;;;;;5012987;28;20126;-71
2023/05/07 01:59:46;;;;;;;33.95;27.60;;;11.60;99.90;;;;;;5013391;28;20131;-71
2023/05/07 02:02:11;;;;;;;36.88;28.08;;;11.60;99.90;;;;;;5013221;28;20054;-72
2023/05/07 02:04:37;;;;;;;38.63;29.55;;;11.60;99.90;;;;;;5013032;28;20132;-71
2023/05/07 02:07:03;;;;;;;36.47;29.70;;;11.50;99.90;;;;;;4995473;28;20042;-71
2023/05/07 02:09:28;;;;;;;42.28;32.30;;;11.50;99.90;;;;;;5012902;28;20451;-74
2023/05/07 02:11:54;;;;;;;38.10;27.58;;;11.50;99.90;;;;;;5012785;28;20056;-74
2023/05/07 02:14:20;;;;;;;41.20;30.45;;;11.50;99.90;;;;;;5012905;28;20045;-73
2023/05/07 02:16:46;;;;;;;39.13;30.38;;;11.50;99.90;;;;;;5012510;28;20050;-73
2023/05/07 02:19:11;;;;;;;39.50;29.10;;;11.50;99.90;;;;;;4979219;28;20047;-73
2023/05/07 02:21:37;;;;;;;38.78;28.60;;;11.40;99.90;;;;;;5013247;28;20057;-74
2023/05/07 02:24:03;;;;;;;40.60;29.05;;;11.50;99.90;;;;;;5012764;28;20049;-74
2023/05/07 02:26:28;;;;;;;39.67;30.45;;;11.40;99.90;;;;;;5012773;28;20054;-73
2023/05/07 02:28:54;;;;;;;42.72;30.15;;;11.40;99.90;;;;;;5012717;28;20046;-74
2023/05/07 02:31:20;;;;;;;48.40;30.33;;;11.40;99.90;;;;;;5012685;28;20045;-74
2023/05/07 02:33:45;;;;;;;40.28;29.60;;;11.40;99.90;;;;;;5012745;28;20207;-74
2023/05/07 02:36:12;;;;;;;39.70;28.85;;;11.40;99.90;;;;;;4994521;28;20466;-70
2023/05/07 02:38:37;;;;;;;43.50;28.90;;;11.40;99.90;;;;;;5012678;28;20042;-73
2023/05/07 02:41:03;;;;;;;41.67;29.98;;;11.40;99.90;;;;;;5012675;28;20072;-73
2023/05/07 02:43:29;;;;;;;45.78;31.15;;;11.40;99.90;;;;;;5013150;28;20086;-72
2023/05/07 02:46:05;;;;;;;45.90;33.30;;;11.40;99.90;;;;;;5012625;28;20490;-73
2023/05/07 02:48:32;;;;;;;41.17;30.08;;;11.40;99.90;;;;;;5012433;28;20056;-72
2023/05/07 02:50:58;;;;;;;44.95;32.80;;;11.40;99.90;;;;;;4995226;28;20053;-73
2023/05/07 02:53:27;;;;;;;45.38;31.15;;;11.40;99.90;;;;;;4994969;28;20049;-72
2023/05/07 02:55:57;;;;;;;45.28;31.92;;;11.40;99.90;;;;;;5012508;28;20053;-73
2023/05/07 02:58:23;;;;;;;43.28;30.35;;;11.30;99.90;;;;;;5012439;28;20052;-73
2023/05/07 03:00:49;;;;;;;48.53;32.60;;;11.40;99.90;;;;;;5012398;28;20081;-73
2023/05/07 03:03:15;;;;;;;45.28;31.77;;;11.40;99.90;;;;;;5011984;28;20042;-72
2023/05/07 03:05:41;;;;;;;48.95;32.17;;;11.40;99.90;;;;;;5012300;28;20046;-72
2023/05/07 03:08:07;;;;;;;46.80;32.92;;;11.30;99.90;;;;;;5012234;28;20125;-72
2023/05/07 03:10:33;;;;;;;45.67;34.50;;;11.30;99.90;;;;;;5012471;28;20088;-72
2023/05/07 03:12:59;;;;;;;51.38;33.22;;;11.30;99.90;;;;;;5012419;28;20053;-72
2023/05/07 03:15:25;;;;;;;45.70;34.65;;;11.30;99.90;;;;;;5012333;28;20081;-73
2023/05/07 03:17:50;;;;;;;47.85;31.63;;;11.30;99.90;;;;;;5012552;28;20042;-72
2023/05/07 03:20:16;;;;;;;47.17;32.92;;;11.30;99.90;;;;;;5012220;28;20054;-72
2023/05/07 03:22:42;;;;;;;47.50;33.10;;;11.30;99.90;;;;;;4995024;28;20057;-73
2023/05/07 03:25:08;;;;;;;45.08;31.73;;;11.30;99.90;;;;;;5012738;28;20053;-74
2023/05/07 03:27:34;;;;;;;45.15;32.67;;;11.30;99.90;;;;;;5012243;28;20045;-73
2023/05/07 03:30:00;;;;;;;48.72;33.90;;;11.20;99.90;;;;;;4998100;28;20054;-72
2023/05/07 03:32:26;;;;;;;49.35;32.00;;;11.20;99.90;;;;;;5015914;28;20046;-73
2023/05/07 03:34:52;;;;;;;50.88;35.28;;;11.20;99.90;;;;;;4998151;28;20478;-73
2023/05/07 03:37:18;;;;;;;49.40;34.63;;;11.20;99.90;;;;;;5016208;28;20042;-72
2023/05/07 03:39:43;;;;;;;44.55;32.03;;;11.20;99.90;;;;;;4998443;28;20116;-73
2023/05/07 03:42:09;;;;;;;50.83;33.95;;;11.10;99.90;;;;;;5015379;28;20046;-73
2023/05/07 03:44:36;;;;;;;46.30;33.53;;;11.20;99.90;;;;;;5016083;28;20061;-73
2023/05/07 03:47:02;;;;;;;46.22;32.28;;;11.10;99.90;;;;;;5015524;28;20042;-74
2023/05/07 03:49:28;;;;;;;42.47;33.42;;;11.10;99.90;;;;;;5015917;28;20129;-73
2023/05/07 03:51:54;;;;;;;46.90;32.90;;;11.10;99.90;;;;;;5015583;28;20085;-73
2023/05/07 03:54:19;;;;;;;45.20;32.28;;;11.10;99.90;;;;;;5015438;28;20056;-73
2023/05/07 03:56:45;;;;;;;48.63;31.98;;;11.00;99.90;;;;;;5015409;28;20052;-74
2023/05/07 03:59:11;;;;;;;43.17;32.78;;;11.00;99.90;;;;;;4998577;28;20351;-73
2023/05/07 04:01:37;;;;;;;46.63;31.75;;;11.00;99.90;;;;;;5015259;28;20061;-73
2023/05/07 04:04:04;;;;;;;41.42;29.63;;;11.00;99.90;;;;;;5015098;28;20508;-72
2023/05/07 04:06:30;;;;;;;46.35;31.48;;;11.00;99.90;;;;;;5015212;28;20058;-73
2023/05/07 04:08:56;;;;;;;43.33;31.50;;;11.00;99.90;;;;;;5015009;28;20053;-73
2023/05/07 04:11:21;;;;;;;39.35;29.60;;;11.00;99.90;;;;;;5015129;28;20038;-72
2023/05/07 04:13:47;;;;;;;44.83;32.05;;;11.00;99.90;;;;;;4997872;28;20053;-73
2023/05/07 04:16:13;;;;;;;41.45;31.55;;;11.00;99.90;;;;;;5015254;28;20043;-73
2023/05/07 04:18:39;;;;;;;41.13;29.77;;;11.00;99.90;;;;;;5015007;28;20037;-73
2023/05/07 04:21:05;;;;;;;40.05;30.27;;;11.00;99.90;;;;;;5015030;28;20104;-72
2023/05/07 04:23:31;;;;;;;43.63;29.73;;;11.00;99.90;;;;;;5015030;28;20042;-73
2023/05/07 04:25:57;;;;;;;42.10;28.70;;;10.90;99.90;;;;;;5015276;28;20054;-72
2023/05/07 04:28:23;;;;;;;38.17;29.17;;;10.90;99.90;;;;;;5014644;28;20042;-72
2023/05/07 04:30:49;;;;;;;37.10;28.83;;;10.90;99.90;;;;;;5014904;28;20046;-72
2023/05/07 04:33:18;;;;;;;36.47;29.20;;;10.90;99.90;;;;;;5014967;28;20107;-73
2023/05/07 04:35:43;;;;;;;41.55;29.00;;;10.90;99.90;;;;;;5014472;28;20072;-72
2023/05/07 04:38:09;;;;;;;36.60;27.13;;;10.90;99.90;;;;;;5014651;28;20392;-72
2023/05/07 04:40:38;;;;;;;41.15;29.80;;;10.90;99.90;;;;;;5014535;28;20050;-73
2023/05/07 04:43:04;;;;;;;39.08;29.05;;;10.90;99.90;;;;;;5014251;28;20449;-73
2023/05/07 04:45:30;;;;;;;43.25;28.83;;;10.90;99.90;;;;;;5015111;28;20096;-73
2023/05/07 04:47:56;;;;;;;38.88;28.98;;;10.90;99.90;;;;;;5014231;28;20050;-73
2023/05/07 04:50:24;;;;;;;39.03;27.45;;;10.90;99.90;;;;;;5014485;28;20050;-73
2023/05/07 04:52:50;;;;;;;42.83;28.90;;;10.90;99.90;;;;;;5014314;28;20085;-72
2023/05/07 04:55:15;;;;;;;34.55;27.58;;;10.90;99.90;;;;;;5014367;28;20046;-72
2023/05/07 04:57:41;;;;;;;34.42;26.67;;;10.90;99.90;;;;;;5014321;28;20077;-73
2023/05/07 05:00:13;;;;;;;34.72;26.45;;;10.90;99.90;;;;;;5013978;28;20088;-72
2023/05/07 05:02:40;;;;;;;39.50;28.80;;;10.90;99.90;;;;;;5014013;28;20050;-73
2023/05/07 05:05:06;;;;;;;34.70;26.95;;;10.90;99.90;;;;;;5014001;28;20045;-73
2023/05/07 05:07:32;;;;;;;34.92;27.83;;;10.90;99.90;;;;;;5013760;28;20140;-74
2023/05/07 05:09:58;;;;;;;36.15;28.40;;;10.90;99.90;;;;;;5013866;28;20053;-74
2023/05/07 05:12:24;;;;;;;33.30;26.00;;;10.90;99.90;;;;;;5013841;28;20052;-74
2023/05/07 05:14:50;;;;;;;33.83;27.67;;;10.90;99.90;;;;;;4996900;28;20053;-74
2023/05/07 05:17:15;;;;;;;33.78;27.40;;;10.80;99.90;;;;;;5014280;28;20100;-73
2023/05/07 05:19:41;;;;;;;37.83;27.88;;;10.90;99.90;;;;;;5013751;28;20484;-73
2023/05/07 05:22:07;;;;;;;38.92;27.08;;;10.90;99.90;;;;;;5014301;28;20085;-73
2023/05/07 05:24:32;;;;;;;33.70;27.30;;;10.90;99.90;;;;;;5013682;28;20544;-73
2023/05/07 05:27:01;;;;;;;32.22;25.10;;;10.90;99.90;;;;;;4996084;28;20038;-73
2023/05/07 05:29:26;;;;;;;33.08;26.50;;;10.90;99.90;;;;;;4996447;28;20046;-73
2023/05/07 05:31:52;;;;;;;40.33;26.75;;;10.90;99.90;;;;;;5013977;28;20056;-73
2023/05/07 05:34:19;;;;;;;34.30;26.75;;;10.90;99.90;;;;;;5013683;28;20498;-73
2023/05/07 05:36:45;;;;;;;36.50;26.05;;;10.90;99.90;;;;;;5013408;28;20069;-73
2023/05/07 05:39:11;;;;;;;36.05;25.80;;;11.00;99.90;;;;;;5013758;28;20116;-73
2023/05/07 05:41:36;;;;;;;33.85;25.45;;;11.00;99.90;;;;;;5013632;28;20548;-73
2023/05/07 05:44:02;;;;;;;29.27;23.98;;;11.00;99.90;;;;;;4996623;28;20168;-73
2023/05/07 05:46:28;;;;;;;35.17;26.90;;;11.00;99.90;;;;;;5013361;28;20063;-73
2023/05/07 05:48:53;;;;;;;32.70;25.23;;;11.00;99.90;;;;;;5013645;28;20045;-73
2023/05/07 05:51:21;;;;;;;31.65;24.48;;;11.00;99.90;;;;;;5013571;28;20137;-74
2023/05/07 05:53:47;;;;;;;30.92;24.67;;;11.00;99.90;;;;;;5012829;28;20061;-74
2023/05/07 05:56:12;;;;;;;32.30;24.30;;;11.00;99.90;;;;;;4996167;28;20053;-73
2023/05/07 05:58:38;;;;;;;33.92;24.52;;;11.00;99.90;;;;;;5013530;28;20042;-73
2023/05/07 06:01:05;;;;;;;33.75;23.98;;;11.10;99.90;;;;;;5013599;28;20049;-74
2023/05/07 06:03:32;;;;;;;30.45;23.75;;;11.10;99.90;;;;;;5013501;28;20097;-73
2023/05/07 06:05:58;;;;;;;32.97;24.33;;;11.20;99.90;;;;;;5012920;28;20050;-74
2023/05/07 06:08:23;;;;;;;31.13;25.58;;;11.20;99.90;;;;;;5012662;28;20469;-73
2023/05/07 06:10:49;;;;;;;31.80;22.60;;;11.20;99.90;;;;;;5012962;28;20049;-73
2023/05/07 06:13:15;;;;;;;27.77;22.70;;;11.20;99.90;;;;;;5012893;28;20046;-73
2023/05/07 06:15:41;;;;;;;28.50;21.48;;;11.20;99.90;;;;;;5012822;28;20085;-73
2023/05/07 06:18:07;;;;;;;30.83;23.27;;;11.20;99.90;;;;;;5012651;28;20054;-74
2023/05/07 06:20:32;;;;;;;27.85;23.38;;;11.20;99.90;;;;;;5012867;28;20125;-73
2023/05/07 06:22:58;;;;;;;33.13;24.75;;;11.20;99.90;;;;;;5013111;28;20115;-73
2023/05/07 06:25:23;;;;;;;31.42;23.40;;;11.20;99.90;;;;;;4979549;28;20060;-73
2023/05/07 06:27:49;;;;;;;30.60;22.65;;;11.20;99.90;;;;;;5012569;28;20081;-73
2023/05/07 06:30:15;;;;;;;28.77;22.90;;;11.20;99.90;;;;;;4995164;28;20103;-73
2023/05/07 06:32:41;;;;;;;31.08;22.30;;;11.20;99.90;;;;;;5012665;28;20092;-73
2023/05/07 06:35:07;;;;;;;29.98;23.52;;;11.20;99.90;;;;;;4995514;28;20132;-73
2023/05/07 06:37:33;;;;;;;29.63;23.00;;;11.20;99.90;;;;;;5012245;28;20404;-73
2023/05/07 06:39:58;;;;;;;29.50;22.95;;;11.30;99.90;;;;;;5013281;28;20060;-73
2023/05/07 06:42:24;;;;;;;31.63;23.50;;;11.30;99.90;;;;;;5012440;28;20410;-73
2023/05/07 06:44:50;;;;;;;28.48;22.20;;;11.30;99.90;;;;;;5012769;28;20034;-74
2023/05/07 06:47:15;;;;;;;30.17;23.35;;;11.30;99.90;;;;;;4995130;28;20444;-73
2023/05/07 06:49:41;;;;;;;32.42;24.88;;;11.30;99.90;;;;;;4995152;28;20045;-73
2023/05/07 06:52:07;;;;;;;31.88;24.08;;;11.40;99.90;;;;;;4995128;28;20089;-72
2023/05/07 06:54:33;;;;;;;32.28;24.05;;;11.40;99.90;;;;;;5012414;28;20082;-72
2023/05/07 06:56:58;;;;;;;31.02;23.55;;;11.50;99.90;;;;;;5012664;28;20042;-73
2023/05/07 06:59:24;;;;;;;32.72;22.17;;;11.40;99.90;;;;;;5012681;28;20108;-73
2023/05/07 07:01:50;;;;;;;30.98;23.17;;;11.40;99.90;;;;;;5012303;28;20050;-73
2023/05/07 07:04:15;;;;;;;29.20;21.05;;;11.50;99.90;;;;;;5014275;28;20469;-72
2023/05/07 07:06:41;;;;;;;28.83;21.77;;;11.40;99.90;;;;;;5016212;28;20168;-73
2023/05/07 07:09:07;;;;;;;29.35;21.17;;;11.50;99.90;;;;;;4998888;28;20061;-73
2023/05/07 07:11:32;;;;;;;29.60;21.70;;;11.50;99.90;;;;;;4999418;28;20521;-73
2023/05/07 07:13:59;;;;;;;30.95;24.42;;;11.60;99.90;;;;;;5016368;28;20050;-75
2023/05/07 07:16:24;;;;;;;32.30;22.75;;;11.60;99.90;;;;;;5016211;28;20056;-72
2023/05/07 07:18:51;;;;;;;30.90;24.00;;;11.60;99.90;;;;;;5016275;28;20446;-72
2023/05/07 07:21:16;;;;;;;32.65;24.05;;;11.60;99.90;;;;;;5016243;28;20053;-72
2023/05/07 07:23:42;;;;;;;27.73;21.52;;;11.70;99.90;;;;;;5016567;28;20481;-71
2023/05/07 07:26:07;;;;;;;31.17;22.40;;;11.70;99.90;;;;;;5016412;28;20114;-72
2023/05/07 07:28:33;;;;;;;32.88;23.33;;;11.80;99.90;;;;;;5016406;28;20042;-73
2023/05/07 07:30:59;;;;;;;32.10;24.20;;;11.90;99.90;;;;;;5015791;28;20046;-72
2023/05/07 07:33:24;;;;;;;32.50;23.25;;;11.90;99.90;;;;;;5016178;28;20081;-72
2023/05/07 07:35:50;;;;;;;35.35;22.45;;;11.90;99.90;;;;;;5015502;28;20065;-71
2023/05/07 07:38:16;;;;;;;32.70;23.55;;;11.90;99.90;;;;;;5015854;28;20572;-72
2023/05/07 07:40:43;;;;;;;30.10;23.05;;;11.90;99.90;;;;;;5015454;28;20112;-73
2023/05/07 07:43:09;;;;;;;33.72;23.00;;;12.00;99.90;;;;;;4998975;28;20069;-74
2023/05/07 07:45:35;;;;;;;31.23;22.20;;;12.10;99.90;;;;;;5015657;28;20483;-72
2023/05/07 07:48:01;;;;;;;25.58;20.08;;;12.10;99.90;;;;;;5015579;28;20473;-72
2023/05/07 07:50:26;;;;;;;30.70;21.80;;;12.20;99.90;;;;;;5015621;28;20564;-73
2023/05/07 07:52:52;;;;;;;35.75;24.48;;;12.20;99.90;;;;;;5015893;28;20523;-73
2023/05/07 07:55:22;;;;;;;30.02;21.58;;;12.20;99.90;;;;;;5015832;28;20085;-73
2023/05/07 07:57:49;;;;;;;33.67;23.55;;;12.30;99.90;;;;;;4998417;28;20060;-72
2023/05/07 08:00:15;;;;;;;29.02;22.30;;;12.30;99.90;;;;;;4998508;28;20050;-72
2023/05/07 08:02:41;;;;;;;33.53;22.50;;;12.30;99.90;;;;;;5015631;28;20077;-73
2023/05/07 08:05:07;;;;;;;28.08;21.40;;;12.40;99.90;;;;;;5015629;28;20394;-73
2023/05/07 08:07:33;;;;;;;32.72;23.60;;;12.40;99.90;;;;;;5014516;28;20045;-73
2023/05/07 08:09:58;;;;;;;34.28;22.10;;;12.60;99.90;;;;;;5015361;28;20474;-72
2023/05/07 08:12:24;;;;;;;29.48;20.40;;;12.60;99.90;;;;;;5015438;28;20516;-71
2023/05/07 08:14:50;;;;;;;31.73;22.98;;;12.70;99.90;;;;;;5014823;28;20053;-72
2023/05/07 08:17:16;;;;;;;31.20;23.08;;;12.80;99.90;;;;;;5014859;28;20129;-72
2023/05/07 08:19:43;;;;;;;26.05;19.52;;;12.90;99.90;;;;;;5015071;28;20046;-72
2023/05/07 08:22:10;;;;;;;25.73;19.25;;;12.90;99.90;;;;;;5015522;28;20056;-72
2023/05/07 08:24:36;;;;;;;31.40;22.35;;;13.00;99.90;;;;;;5015288;28;20054;-73
2023/05/07 08:27:02;;;;;;;28.60;20.52;;;13.00;99.90;;;;;;5014903;28;20042;-72
2023/05/07 08:29:27;;;;;;;28.75;20.73;;;12.90;99.90;;;;;;4997539;28;20052;-72
2023/05/07 08:31:53;;;;;;;27.10;20.40;;;13.00;99.90;;;;;;5014448;28;20078;-72
2023/05/07 08:34:19;;;;;;;27.35;20.85;;;13.00;99.90;;;;;;5014812;28;20376;-72
2023/05/07 08:36:48;;;;;;;25.63;20.00;;;13.50;99.90;;;;;;5014337;28;20141;-72
2023/05/07 08:39:15;;;;;;;29.70;21.50;;;13.10;99.90;;;;;;5014410;28;20050;-73
2023/05/07 08:41:42;;;;;;;25.75;20.58;;;13.10;99.90;;;;;;5014645;28;20137;-72
2023/05/07 08:44:13;;;;;;;27.30;19.67;;;13.30;99.90;;;;;;5014608;28;20053;-72
2023/05/07 08:46:41;;;;;;;29.33;21.45;;;13.50;99.90;;;;;;5015003;28;20046;-72
2023/05/07 08:49:08;;;;;;;25.08;19.38;;;13.60;99.90;;;;;;5014648;28;20049;-72
2023/05/07 08:51:35;;;;;;;27.30;19.48;;;13.70;99.90;;;;;;5014450;28;20481;-72
2023/05/07 08:54:01;;;;;;;24.88;19.33;;;13.80;99.90;;;;;;5014490;28;20088;-71
2023/05/07 08:56:27;;;;;;;28.70;19.13;;;13.90;99.90;;;;;;5014588;28;20053;-72
2023/05/07 08:58:56;;;;;;;26.00;18.58;;;14.10;99.90;;;;;;5014361;28;20447;-72
2023/05/07 09:01:22;;;;;;;29.00;20.52;;;14.30;99.90;;;;;;4996986;28;20057;-73
2023/05/07 09:03:50;;;;;;;27.90;18.58;;;14.50;99.90;;;;;;5014357;28;20057;-72
2023/05/07 09:06:16;;;;;;;25.85;18.70;;;14.60;99.90;;;;;;5014169;28;20042;-71
2023/05/07 09:08:49;;;;;;;26.13;19.05;;;14.70;99.90;;;;;;5014092;28;20073;-72
2023/05/07 09:11:15;;;;;;;22.58;16.90;;;14.70;99.90;;;;;;5014676;28;20050;-72
2023/05/07 09:13:40;;;;;;;23.58;18.63;;;14.70;99.90;;;;;;5014163;28;20100;-72
2023/05/07 09:16:11;;;;;;;23.25;16.95;;;14.70;99.90;;;;;;5014270;28;20054;-72
2023/05/07 09:18:41;;;;;;;29.98;17.17;;;14.90;99.90;;;;;;4980626;28;20115;-73
2023/05/07 09:21:10;;;;;;;24.40;16.17;;;15.00;99.90;;;;;;5014447;28;20045;-72
2023/05/07 09:23:36;;;;;;;29.48;18.55;;;15.10;99.90;;;;;;5013910;28;20157;-72
2023/05/07 09:26:02;;;;;;;23.83;16.50;;;15.20;99.90;;;;;;5013603;28;20085;-72
2023/05/07 09:28:27;;;;;;;23.23;17.60;;;15.30;99.90;;;;;;5013678;28;20046;-73
2023/05/07 09:30:53;;;;;;;22.05;17.27;;;15.40;99.90;;;;;;5014082;28;20052;-73
2023/05/07 09:33:18;;;;;;;23.65;16.23;;;15.40;99.90;;;;;;5013636;28;20050;-73
2023/05/07 09:35:44;;;;;;;24.30;16.30;;;15.40;99.90;;;;;;5013849;28;20093;-72
2023/05/07 09:38:10;;;;;;;22.63;16.67;;;15.40;99.90;;;;;;5014117;28;20359;-72
2023/05/07 09:40:36;;;;;;;28.38;17.42;;;15.30;99.90;;;;;;4996204;28;20474;-72
2023/05/07 09:43:12;;;;;;;24.30;17.02;;;15.50;99.90;;;;;;5013382;28;20092;-72
2023/05/07 09:45:38;;;;;;;20.00;16.23;;;15.70;99.90;;;;;;5013532;28;20483;-72
2023/05/07 09:48:06;;;;;;;20.67;15.13;;;16.00;99.90;;;;;;5013849;28;20053;-72
2023/05/07 09:50:49;;;;;;;23.50;15.98;;;16.00;99.90;;;;;;5013550;28;20064;-72
2023/05/07 09:53:16;;;;;;;;;;;16.00;99.90;;;;;;5014306;28;20053;-72
2023/05/07 09:55:43;;;;;;;18.40;14.63;;;16.20;99.90;;;;;;5013447;28;19929;-73
2023/05/07 09:58:11;;;;;;;23.45;16.15;;;16.40;99.90;;;;;;5013582;28;20045;-72
2023/05/07 10:00:39;;;;;;;19.73;15.13;;;16.40;99.90;;;;;;5013460;28;20064;-72
2023/05/07 10:03:07;;;;;;;23.00;15.75;;;16.30;99.90;;;;;;5013325;28;20045;-72
2023/05/07 10:05:33;;;;;;;20.52;16.05;;;16.40;99.90;;;;;;5013362;28;20520;-73
2023/05/07 10:08:00;;;;;;;21.85;14.27;;;16.50;99.90;;;;;;5013031;28;20057;-72
2023/05/07 10:10:27;;;;;;;20.67;14.07;;;16.50;99.90;;;;;;5013420;28;20065;-72
2023/05/07 10:12:54;;;;;;;19.27;14.02;;;16.40;99.90;;;;;;5013459;28;20042;-72
2023/05/07 10:15:21;;;;;;;20.70;13.55;;;16.40;99.90;;;;;;5013132;28;20521;-72
2023/05/07 10:17:48;;;;;;;21.40;14.43;;;16.50;99.90;;;;;;4996312;28;20054;-73
2023/05/07 10:20:13;;;;;;;19.75;14.02;;;16.40;99.90;;;;;;5013047;28;20046;-72
2023/05/07 10:22:43;;;;;;;19.83;14.30;;;16.40;99.90;;;;;;4996148;28;20048;-73
2023/05/07 10:25:34;;;;;;;19.40;14.05;;;16.40;99.90;;;;;;5013545;28;20038;-73
2023/05/07 10:28:05;;;;;;;15.75;12.35;;;16.50;99.90;;;;;;4993359;28;20050;-72
2023/05/07 10:30:40;;;;;;;19.08;14.20;;;16.60;99.90;;;;;;5013490;28;20046;-73
2023/05/07 10:33:08;;;;;;;20.15;14.23;;;16.70;99.90;;;;;;5012936;28;20148;-72
2023/05/07 10:35:43;;;;;;;15.13;13.52;;;16.70;99.90;;;;;;4995256;28;20057;-73
2023/05/07 10:38:09;;;;;;;20.48;15.13;;;16.70;99.90;;;;;;5012112;28;20046;-72
2023/05/07 10:40:36;;;;;;;15.80;13.80;;;16.70;99.90;;;;;;4995353;28;20041;-73
2023/05/07 10:43:04;;;;;;;19.83;15.25;;;16.80;99.90;;;;;;5013114;28;20081;-72
2023/05/07 10:45:31;;;;;;;15.30;12.70;;;16.80;99.90;;;;;;5012644;28;20521;-73
2023/05/07 10:48:11;;;;;;;18.13;13.43;;;17.00;99.90;;;;;;5012644;28;20177;-75
2023/05/07 10:50:39;;;;;;;16.73;12.65;;;17.00;99.90;;;;;;5012961;28;20551;-73
2023/05/07 10:53:17;;;;;;;18.00;13.18;;;17.00;99.90;;;;;;4995519;28;20042;-73
2023/05/07 10:55:47;;;;;;;17.38;12.95;;;16.90;99.90;;;;;;5012889;28;20116;-73
2023/05/07 10:58:22;;;;;;;18.83;13.50;;;16.80;99.90;;;;;;5012718;28;20048;-74
2023/05/07 11:00:52;;;;;;;15.55;13.02;;;16.90;99.90;;;;;;5012640;28;20060;-74
2023/05/07 11:03:18;;;;;;;20.10;14.35;;;17.00;99.90;;;;;;5012957;28;20054;-73
2023/05/07 11:05:43;;;;;;;17.30;14.05;;;17.10;99.90;;;;;;4995485;28;20141;-73
2023/05/07 11:08:09;;;;;;;18.25;14.00;;;17.20;99.90;;;;;;5012360;28;20038;-73
2023/05/07 11:11:08;;;;;;;19.42;14.27;;;17.40;99.90;;;;;;4995125;28;20086;-74
2023/05/07 11:13:51;;;;;;;17.20;13.77;;;17.40;99.90;;;;;;4989706;28;20486;-73
2023/05/07 11:16:18;;;;;;;17.33;13.63;;;17.50;99.90;;;;;;5012833;28;20057;-73
2023/05/07 11:18:52;;;;;;;18.48;13.52;;;17.50;99.90;;;;;;5012466;28;20125;-73
2023/05/07 11:21:38;;;;;;;18.65;14.25;;;17.60;99.90;;;;;;5012416;28;20061;-73
2023/05/07 11:24:08;;;;;;;14.55;12.88;;;17.40;99.90;;;;;;5012324;28;20050;-73
2023/05/07 11:27:00;;;;;;;17.98;13.07;;;17.40;99.90;;;;;;5012480;28;20050;-73
2023/05/07 11:29:27;;;;;;;18.02;13.20;;;17.50;99.90;;;;;;4993123;28;20483;-73
2023/05/07 11:31:54;;;;;;;17.48;13.68;;;17.50;99.90;;;;;;5012525;28;20041;-74
2023/05/07 11:34:25;;;;;;;16.52;13.00;;;17.60;99.90;;;;;;5012774;28;20042;-73
2023/05/07 11:36:51;;;;;;;16.83;13.63;;;17.60;99.90;;;;;;4994179;28;20054;-73
2023/05/07 11:39:28;;;;;;;19.30;13.50;;;17.70;99.90;;;;;;4995057;28;20103;-74
2023/05/07 11:41:54;;;;;;;16.05;13.48;;;17.70;99.90;;;;;;5012081;28;20085;-73
2023/05/07 11:44:20;;;;;;;16.00;12.57;;;17.60;99.90;;;;;;5012524;28;20085;-73
2023/05/07 11:46:46;;;;;;;17.02;13.40;;;17.50;99.90;;;;;;4995024;28;20504;-74
2023/05/07 11:49:12;;;;;;;18.90;15.05;;;17.70;99.90;;;;;;4994442;28;20049;-74
2023/05/07 11:51:39;;;;;;;15.27;12.48;;;17.60;99.90;;;;;;5015433;28;20085;-74
2023/05/07 11:54:08;;;;;;;16.80;13.35;;;17.60;99.90;;;;;;5015248;28;20382;-74
2023/05/07 11:56:35;;;;;;;16.98;13.75;;;17.60;99.90;;;;;;4997807;28;20050;-75
2023/05/07 11:59:01;;;;;;;17.35;13.77;;;17.80;99.90;;;;;;4998007;28;20089;-75
2023/05/07 12:01:26;;;;;;;17.75;14.43;;;17.80;99.90;;;;;;5015246;28;20419;-74
2023/05/07 12:03:52;;;;;;;21.98;14.38;;;17.70;99.90;;;;;;5015324;28;20049;-74
2023/05/07 12:06:18;;;;;;;14.65;12.85;;;17.80;99.90;;;;;;5015682;28;20069;-74
2023/05/07 12:08:45;;;;;;;15.70;12.13;;;17.80;99.90;;;;;;4997418;28;20490;-74
2023/05/07 12:11:24;;;;;;;18.17;12.50;;;17.70;99.90;;;;;;5014935;28;20096;-74
2023/05/07 12:13:51;;;;;;;19.65;14.73;;;17.70;99.90;;;;;;5015114;28;20045;-74
2023/05/07 12:16:18;;;;;;;16.13;12.98;;;17.80;99.90;;;;;;5014832;28;20057;-74
2023/05/07 12:18:44;;;;;;;16.63;12.07;;;17.90;99.90;;;;;;4997660;28;20054;-74
2023/05/07 12:21:11;;;;;;;19.60;14.23;;;17.90;99.90;;;;;;4997694;28;20045;-73
2023/05/07 12:23:38;;;;;;;16.42;13.65;;;18.00;99.90;;;;;;5014774;28;20057;-74
2023/05/07 12:26:04;;;;;;;17.90;13.90;;;18.00;99.90;;;;;;4997537;28;20050;-74